sensor_id;sensor_type;location;lat;lon;timestamp;P1;durP1;ratioP1;P2;durP2;ratioP2
50124;SDS011;36023;48.670;6.184;2023-04-07T00:01:33;1.92;;;0.50;;
50124;SDS011;36023;48.670;6.184;2023-04-07T00:03:59;2.35;;;0.50;;
50124;SDS011;36023;48.670;6.184;2023-04-07T00:06:25;1.63;;;0.70;;
50124;SDS011;36023;48.670;6.184;2023-04-07T00:08:51;1.00;;;0.50;;
50124;SDS011;36023;48.670;6.184;2023-04-07T00:11:19;1.23;;;0.77;;
50124;SDS011;36023;48.670;6.184;2023-04-07T00:13:45;0.85;;;0.57;;
50124;SDS011;36023;48.670;6.184;2023-04-07T00:16:10;1.67;;;0.73;;
50124;SDS011;36023;48.670;6.184;2023-04-07T00:18:36;0.75;;;0.50;;
50124;SDS011;36023;48.670;6.184;2023-04-07T00:21:02;1.08;;;0.50;;
50124;SDS011;36023;48.670;6.184;2023-04-07T00:23:27;1.05;;;0.63;;
50124;SDS011;36023;48.670;6.184;2023-04-07T00:25:53;1.25;;;0.70;;
50124;SDS011;36023;48.670;6.184;2023-04-07T00:28:18;1.55;;;0.60;;
50124;SDS011;36023;48.670;6.184;2023-04-07T00:30:45;3.00;;;0.77;;
50124;SDS011;36023;48.670;6.184;2023-04-07T00:33:11;1.52;;;0.55;;
50124;SDS011;36023;48.670;6.184;2023-04-07T00:35:38;2.85;;;0.63;;
50124;SDS011;36023;48.670;6.184;2023-04-07T00:38:03;0.95;;;0.43;;
50124;SDS011;36023;48.670;6.184;2023-04-07T00:40:30;0.70;;;0.40;;
50124;SDS011;36023;48.670;6.184;2023-04-07T00:42:55;0.60;;;0.47;;
50124;SDS011;36023;48.670;6.184;2023-04-07T00:45:22;2.42;;;0.80;;
50124;SDS011;36023;48.670;6.184;2023-04-07T00:47:48;1.23;;;0.50;;
50124;SDS011;36023;48.670;6.184;2023-04-07T00:50:14;1.15;;;0.60;;
50124;SDS011;36023;48.670;6.184;2023-04-07T00:52:39;3.22;;;0.73;;
50124;SDS011;36023;48.670;6.184;2023-04-07T00:55:06;1.17;;;0.43;;
50124;SDS011;36023;48.670;6.184;2023-04-07T00:57:32;1.10;;;0.57;;
50124;SDS011;36023;48.670;6.184;2023-04-07T00:59:59;1.42;;;0.80;;
50124;SDS011;36023;48.670;6.184;2023-04-07T01:02:36;0.98;;;0.55;;
50124;SDS011;36023;48.670;6.184;2023-04-07T01:05:17;0.70;;;0.40;;
50124;SDS011;36023;48.670;6.184;2023-04-07T01:08:10;0.55;;;0.38;;
50124;SDS011;36023;48.670;6.184;2023-04-07T01:13:30;1.38;;;0.70;;
50124;SDS011;36023;48.670;6.184;2023-04-07T01:16:40;0.93;;;0.50;;
50124;SDS011;36023;48.670;6.184;2023-04-07T01:21:37;0.77;;;0.40;;
50124;SDS011;36023;48.670;6.184;2023-04-07T01:29:29;0.45;;;0.15;;
50124;SDS011;36023;48.670;6.184;2023-04-07T01:31:59;0.47;;;0.40;;
50124;SDS011;36023;48.670;6.184;2023-04-07T01:34:27;1.02;;;0.30;;
50124;SDS011;36023;48.670;6.184;2023-04-07T01:36:54;0.88;;;0.35;;
50124;SDS011;36023;48.670;6.184;2023-04-07T01:39:22;0.20;;;0.10;;
50124;SDS011;36023;48.670;6.184;2023-04-07T01:41:51;0.40;;;0.20;;
50124;SDS011;36023;48.670;6.184;2023-04-07T01:44:18;0.30;;;0.20;;
50124;SDS011;36023;48.670;6.184;2023-04-07T01:46:44;2.10;;;0.20;;
50124;SDS011;36023;48.670;6.184;2023-04-07T01:49:11;0.90;;;0.25;;
50124;SDS011;36023;48.670;6.184;2023-04-07T01:51:37;1.65;;;0.32;;
50124;SDS011;36023;48.670;6.184;2023-04-07T01:54:04;1.42;;;0.38;;
50124;SDS011;36023;48.670;6.184;2023-04-07T01:56:31;1.02;;;0.47;;
50124;SDS011;36023;48.670;6.184;2023-04-07T01:58:59;1.10;;;0.38;;
50124;SDS011;36023;48.670;6.184;2023-04-07T02:01:25;0.10;;;0.08;;
50124;SDS011;36023;48.670;6.184;2023-04-07T02:06:30;0.57;;;0.30;;
50124;SDS011;36023;48.670;6.184;2023-04-07T02:09:03;1.35;;;0.68;;
50124;SDS011;36023;48.670;6.184;2023-04-07T02:11:32;0.70;;;0.47;;
50124;SDS011;36023;48.670;6.184;2023-04-07T02:14:03;0.35;;;0.25;;
50124;SDS011;36023;48.670;6.184;2023-04-07T02:16:35;0.65;;;0.30;;
50124;SDS011;36023;48.670;6.184;2023-04-07T02:19:04;0.52;;;0.35;;
50124;SDS011;36023;48.670;6.184;2023-04-07T02:21:29;0.32;;;0.20;;
50124;SDS011;36023;48.670;6.184;2023-04-07T02:24:04;0.95;;;0.30;;
50124;SDS011;36023;48.670;6.184;2023-04-07T02:26:34;1.15;;;0.45;;
50124;SDS011;36023;48.670;6.184;2023-04-07T02:29:01;0.82;;;0.20;;
50124;SDS011;36023;48.670;6.184;2023-04-07T02:31:28;1.38;;;0.65;;
50124;SDS011;36023;48.670;6.184;2023-04-07T02:33:54;0.60;;;0.40;;
50124;SDS011;36023;48.670;6.184;2023-04-07T02:36:19;0.95;;;0.47;;
50124;SDS011;36023;48.670;6.184;2023-04-07T02:38:45;1.13;;;0.30;;
50124;SDS011;36023;48.670;6.184;2023-04-07T02:41:11;0.65;;;0.43;;
50124;SDS011;36023;48.670;6.184;2023-04-07T02:43:38;1.30;;;0.60;;
50124;SDS011;36023;48.670;6.184;2023-04-07T02:46:04;0.82;;;0.30;;
50124;SDS011;36023;48.670;6.184;2023-04-07T02:48:30;1.73;;;0.40;;
50124;SDS011;36023;48.670;6.184;2023-04-07T02:50:55;0.55;;;0.30;;
50124;SDS011;36023;48.670;6.184;2023-04-07T02:53:23;0.65;;;0.20;;
50124;SDS011;36023;48.670;6.184;2023-04-07T02:55:48;0.65;;;0.30;;
50124;SDS011;36023;48.670;6.184;2023-04-07T02:58:16;0.63;;;0.28;;
50124;SDS011;36023;48.670;6.184;2023-04-07T03:00:43;0.13;;;0.10;;
50124;SDS011;36023;48.670;6.184;2023-04-07T03:03:12;0.47;;;0.30;;
50124;SDS011;36023;48.670;6.184;2023-04-07T03:05:41;3.50;;;0.30;;
50124;SDS011;36023;48.670;6.184;2023-04-07T03:08:08;0.88;;;0.30;;
50124;SDS011;36023;48.670;6.184;2023-04-07T03:10:34;0.85;;;0.40;;
50124;SDS011;36023;48.670;6.184;2023-04-07T03:13:00;1.35;;;0.20;;
50124;SDS011;36023;48.670;6.184;2023-04-07T03:15:27;0.35;;;0.20;;
50124;SDS011;36023;48.670;6.184;2023-04-07T03:17:53;1.38;;;0.40;;
50124;SDS011;36023;48.670;6.184;2023-04-07T03:20:19;0.60;;;0.40;;
50124;SDS011;36023;48.670;6.184;2023-04-07T03:22:45;1.15;;;0.30;;
50124;SDS011;36023;48.670;6.184;2023-04-07T03:25:18;0.82;;;0.40;;
50124;SDS011;36023;48.670;6.184;2023-04-07T03:27:45;0.70;;;0.30;;
50124;SDS011;36023;48.670;6.184;2023-04-07T03:30:13;0.60;;;0.35;;
50124;SDS011;36023;48.670;6.184;2023-04-07T03:32:40;0.55;;;0.35;;
50124;SDS011;36023;48.670;6.184;2023-04-07T03:35:06;0.38;;;0.20;;
50124;SDS011;36023;48.670;6.184;2023-04-07T03:37:32;0.45;;;0.25;;
50124;SDS011;36023;48.670;6.184;2023-04-07T03:39:59;0.35;;;0.22;;
50124;SDS011;36023;48.670;6.184;2023-04-07T03:42:31;0.63;;;0.30;;
50124;SDS011;36023;48.670;6.184;2023-04-07T03:45:02;0.50;;;0.30;;
50124;SDS011;36023;48.670;6.184;2023-04-07T03:47:29;0.70;;;0.20;;
50124;SDS011;36023;48.670;6.184;2023-04-07T03:49:58;0.68;;;0.30;;
50124;SDS011;36023;48.670;6.184;2023-04-07T03:52:25;0.28;;;0.10;;
50124;SDS011;36023;48.670;6.184;2023-04-07T03:54:58;0.95;;;0.30;;
50124;SDS011;36023;48.670;6.184;2023-04-07T03:57:29;0.98;;;0.35;;
50124;SDS011;36023;48.670;6.184;2023-04-07T03:59:58;0.57;;;0.30;;
50124;SDS011;36023;48.670;6.184;2023-04-07T04:02:24;0.47;;;0.20;;
50124;SDS011;36023;48.670;6.184;2023-04-07T04:04:51;0.60;;;0.20;;
50124;SDS011;36023;48.670;6.184;2023-04-07T04:07:19;1.08;;;0.30;;
50124;SDS011;36023;48.670;6.184;2023-04-07T04:09:52;0.35;;;0.15;;
50124;SDS011;36023;48.670;6.184;2023-04-07T04:12:18;1.08;;;0.17;;
50124;SDS011;36023;48.670;6.184;2023-04-07T04:15:02;1.98;;;0.32;;
50124;SDS011;36023;48.670;6.184;2023-04-07T04:17:28;3.13;;;0.55;;
50124;SDS011;36023;48.670;6.184;2023-04-07T04:19:53;0.98;;;0.38;;
50124;SDS011;36023;48.670;6.184;2023-04-07T04:22:24;0.40;;;0.20;;
50124;SDS011;36023;48.670;6.184;2023-04-07T04:24:53;1.15;;;0.60;;
50124;SDS011;36023;48.670;6.184;2023-04-07T04:27:21;0.52;;;0.10;;
50124;SDS011;36023;48.670;6.184;2023-04-07T04:29:52;0.32;;;0.10;;
50124;SDS011;36023;48.670;6.184;2023-04-07T04:32:26;0.85;;;0.20;;
50124;SDS011;36023;48.670;6.184;2023-04-07T04:34:52;1.95;;;0.60;;
50124;SDS011;36023;48.670;6.184;2023-04-07T04:37:18;0.80;;;0.20;;
50124;SDS011;36023;48.670;6.184;2023-04-07T04:39:45;1.65;;;0.17;;
50124;SDS011;36023;48.670;6.184;2023-04-07T04:42:15;1.33;;;0.60;;
50124;SDS011;36023;48.670;6.184;2023-04-07T04:44:43;0.82;;;0.25;;
50124;SDS011;36023;48.670;6.184;2023-04-07T04:47:09;1.85;;;0.57;;
50124;SDS011;36023;48.670;6.184;2023-04-07T04:49:38;0.95;;;0.10;;
50124;SDS011;36023;48.670;6.184;2023-04-07T04:52:04;0.65;;;0.17;;
50124;SDS011;36023;48.670;6.184;2023-04-07T04:54:36;15.10;;;0.43;;
50124;SDS011;36023;48.670;6.184;2023-04-07T04:57:02;0.63;;;0.20;;
50124;SDS011;36023;48.670;6.184;2023-04-07T04:59:28;0.47;;;0.20;;
50124;SDS011;36023;48.670;6.184;2023-04-07T05:02:03;0.10;;;0.10;;
50124;SDS011;36023;48.670;6.184;2023-04-07T05:04:28;0.40;;;0.20;;
50124;SDS011;36023;48.670;6.184;2023-04-07T05:07:06;0.38;;;0.20;;
50124;SDS011;36023;48.670;6.184;2023-04-07T05:09:32;1.13;;;0.20;;
50124;SDS011;36023;48.670;6.184;2023-04-07T05:11:58;1.55;;;0.10;;
50124;SDS011;36023;48.670;6.184;2023-04-07T05:14:26;0.30;;;0.13;;
50124;SDS011;36023;48.670;6.184;2023-04-07T05:16:57;0.28;;;0.15;;
50124;SDS011;36023;48.670;6.184;2023-04-07T05:19:26;0.95;;;0.30;;
50124;SDS011;36023;48.670;6.184;2023-04-07T05:21:56;1.08;;;0.28;;
50124;SDS011;36023;48.670;6.184;2023-04-07T05:24:24;0.20;;;0.10;;
50124;SDS011;36023;48.670;6.184;2023-04-07T05:26:54;0.65;;;0.17;;
50124;SDS011;36023;48.670;6.184;2023-04-07T05:29:21;0.30;;;0.10;;
50124;SDS011;36023;48.670;6.184;2023-04-07T05:31:47;0.40;;;0.15;;
50124;SDS011;36023;48.670;6.184;2023-04-07T05:34:15;0.47;;;0.10;;
50124;SDS011;36023;48.670;6.184;2023-04-07T05:36:47;1.42;;;0.17;;
50124;SDS011;36023;48.670;6.184;2023-04-07T05:39:14;0.10;;;0.10;;
50124;SDS011;36023;48.670;6.184;2023-04-07T05:41:41;0.30;;;0.13;;
50124;SDS011;36023;48.670;6.184;2023-04-07T05:44:08;0.68;;;0.10;;
50124;SDS011;36023;48.670;6.184;2023-04-07T05:46:38;0.75;;;0.30;;
50124;SDS011;36023;48.670;6.184;2023-04-07T05:49:03;0.45;;;0.25;;
50124;SDS011;36023;48.670;6.184;2023-04-07T05:51:29;0.30;;;0.20;;
50124;SDS011;36023;48.670;6.184;2023-04-07T05:53:57;0.30;;;0.28;;
50124;SDS011;36023;48.670;6.184;2023-04-07T05:56:26;0.20;;;0.15;;
50124;SDS011;36023;48.670;6.184;2023-04-07T05:58:54;0.90;;;0.30;;
50124;SDS011;36023;48.670;6.184;2023-04-07T06:01:20;0.80;;;0.40;;
50124;SDS011;36023;48.670;6.184;2023-04-07T06:03:46;0.50;;;0.50;;
50124;SDS011;36023;48.670;6.184;2023-04-07T06:06:17;0.93;;;0.30;;
50124;SDS011;36023;48.670;6.184;2023-04-07T06:08:44;0.38;;;0.13;;
50124;SDS011;36023;48.670;6.184;2023-04-07T06:11:11;0.30;;;0.20;;
50124;SDS011;36023;48.670;6.184;2023-04-07T06:13:37;0.40;;;0.10;;
50124;SDS011;36023;48.670;6.184;2023-04-07T06:16:03;2.28;;;0.20;;
50124;SDS011;36023;48.670;6.184;2023-04-07T06:18:29;0.52;;;0.25;;
50124;SDS011;36023;48.670;6.184;2023-04-07T06:20:55;0.93;;;0.15;;
50124;SDS011;36023;48.670;6.184;2023-04-07T06:23:21;3.53;;;0.52;;
50124;SDS011;36023;48.670;6.184;2023-04-07T06:25:47;0.25;;;0.10;;
50124;SDS011;36023;48.670;6.184;2023-04-07T06:28:16;0.57;;;0.28;;
50124;SDS011;36023;48.670;6.184;2023-04-07T06:30:42;0.30;;;0.28;;
50124;SDS011;36023;48.670;6.184;2023-04-07T06:33:11;0.25;;;0.15;;
50124;SDS011;36023;48.670;6.184;2023-04-07T06:35:38;0.15;;;0.10;;
50124;SDS011;36023;48.670;6.184;2023-04-07T06:38:05;2.58;;;0.30;;
50124;SDS011;36023;48.670;6.184;2023-04-07T06:40:32;2.05;;;0.82;;
50124;SDS011;36023;48.670;6.184;2023-04-07T06:42:58;2.25;;;0.40;;
50124;SDS011;36023;48.670;6.184;2023-04-07T06:45:29;4.18;;;1.15;;
50124;SDS011;36023;48.670;6.184;2023-04-07T06:47:55;1.85;;;0.68;;
50124;SDS011;36023;48.670;6.184;2023-04-07T06:50:23;2.40;;;0.60;;
50124;SDS011;36023;48.670;6.184;2023-04-07T06:52:49;4.38;;;0.70;;
50124;SDS011;36023;48.670;6.184;2023-04-07T06:55:15;0.98;;;0.40;;
50124;SDS011;36023;48.670;6.184;2023-04-07T06:57:43;2.28;;;0.60;;
50124;SDS011;36023;48.670;6.184;2023-04-07T07:00:08;3.13;;;0.80;;
50124;SDS011;36023;48.670;6.184;2023-04-07T07:02:35;0.68;;;0.60;;
50124;SDS011;36023;48.670;6.184;2023-04-07T07:05:01;2.55;;;0.43;;
50124;SDS011;36023;48.670;6.184;2023-04-07T07:07:29;3.28;;;0.50;;
50124;SDS011;36023;48.670;6.184;2023-04-07T07:09:56;2.45;;;0.88;;
50124;SDS011;36023;48.670;6.184;2023-04-07T07:12:22;1.73;;;0.45;;
50124;SDS011;36023;48.670;6.184;2023-04-07T07:14:47;3.30;;;0.60;;
50124;SDS011;36023;48.670;6.184;2023-04-07T07:17:13;0.77;;;0.70;;
50124;SDS011;36023;48.670;6.184;2023-04-07T07:19:39;2.40;;;0.45;;
50124;SDS011;36023;48.670;6.184;2023-04-07T07:22:04;1.75;;;0.40;;
50124;SDS011;36023;48.670;6.184;2023-04-07T07:24:30;4.13;;;1.17;;
50124;SDS011;36023;48.670;6.184;2023-04-07T07:26:58;2.42;;;0.38;;
50124;SDS011;36023;48.670;6.184;2023-04-07T07:29:26;1.15;;;0.75;;
50124;SDS011;36023;48.670;6.184;2023-04-07T07:31:51;0.65;;;0.17;;
50124;SDS011;36023;48.670;6.184;2023-04-07T07:34:17;3.10;;;0.38;;
50124;SDS011;36023;48.670;6.184;2023-04-07T07:36:43;3.40;;;0.45;;
50124;SDS011;36023;48.670;6.184;2023-04-07T07:39:08;3.83;;;0.40;;
50124;SDS011;36023;48.670;6.184;2023-04-07T07:41:34;1.80;;;0.45;;
50124;SDS011;36023;48.670;6.184;2023-04-07T07:44:03;0.50;;;0.50;;
50124;SDS011;36023;48.670;6.184;2023-04-07T07:46:29;2.53;;;0.85;;
50124;SDS011;36023;48.670;6.184;2023-04-07T07:48:55;1.35;;;0.50;;
50124;SDS011;36023;48.670;6.184;2023-04-07T07:51:20;2.38;;;0.47;;
50124;SDS011;36023;48.670;6.184;2023-04-07T07:53:46;5.15;;;0.90;;
50124;SDS011;36023;48.670;6.184;2023-04-07T07:56:12;1.17;;;0.57;;
50124;SDS011;36023;48.670;6.184;2023-04-07T07:58:39;2.63;;;0.95;;
50124;SDS011;36023;48.670;6.184;2023-04-07T08:01:05;0.75;;;0.30;;
50124;SDS011;36023;48.670;6.184;2023-04-07T08:03:31;0.95;;;0.52;;
50124;SDS011;36023;48.670;6.184;2023-04-07T08:05:57;3.25;;;0.52;;
50124;SDS011;36023;48.670;6.184;2023-04-07T08:08:24;1.13;;;0.35;;
50124;SDS011;36023;48.670;6.184;2023-04-07T08:10:50;1.05;;;0.38;;
50124;SDS011;36023;48.670;6.184;2023-04-07T08:13:16;1.80;;;0.38;;
50124;SDS011;36023;48.670;6.184;2023-04-07T08:15:41;0.47;;;0.32;;
50124;SDS011;36023;48.670;6.184;2023-04-07T08:18:07;0.75;;;0.63;;
50124;SDS011;36023;48.670;6.184;2023-04-07T08:20:33;1.30;;;0.43;;
50124;SDS011;36023;48.670;6.184;2023-04-07T08:22:59;0.57;;;0.20;;
50124;SDS011;36023;48.670;6.184;2023-04-07T08:25:27;2.70;;;0.70;;
50124;SDS011;36023;48.670;6.184;2023-04-07T08:27:53;2.85;;;0.30;;
50124;SDS011;36023;48.670;6.184;2023-04-07T08:30:18;2.03;;;1.05;;
50124;SDS011;36023;48.670;6.184;2023-04-07T08:32:46;1.38;;;0.60;;
50124;SDS011;36023;48.670;6.184;2023-04-07T08:35:12;4.75;;;0.45;;
50124;SDS011;36023;48.670;6.184;2023-04-07T08:37:38;2.22;;;0.50;;
50124;SDS011;36023;48.670;6.184;2023-04-07T08:40:06;1.30;;;0.43;;
50124;SDS011;36023;48.670;6.184;2023-04-07T08:42:35;1.60;;;0.70;;
50124;SDS011;36023;48.670;6.184;2023-04-07T08:45:06;1.20;;;0.43;;
50124;SDS011;36023;48.670;6.184;2023-04-07T08:47:34;0.95;;;0.25;;
50124;SDS011;36023;48.670;6.184;2023-04-07T08:50:02;1.83;;;0.65;;
50124;SDS011;36023;48.670;6.184;2023-04-07T08:55:21;0.15;;;0.10;;
50124;SDS011;36023;48.670;6.184;2023-04-07T08:57:48;0.75;;;0.20;;
50124;SDS011;36023;48.670;6.184;2023-04-07T09:00:16;4.35;;;0.57;;
50124;SDS011;36023;48.670;6.184;2023-04-07T09:02:42;0.95;;;0.25;;
50124;SDS011;36023;48.670;6.184;2023-04-07T09:05:14;1.33;;;0.50;;
50124;SDS011;36023;48.670;6.184;2023-04-07T09:07:41;2.90;;;0.68;;
50124;SDS011;36023;48.670;6.184;2023-04-07T09:10:09;2.15;;;0.52;;
50124;SDS011;36023;48.670;6.184;2023-04-07T09:12:35;1.38;;;0.68;;
50124;SDS011;36023;48.670;6.184;2023-04-07T09:15:01;0.93;;;0.50;;
50124;SDS011;36023;48.670;6.184;2023-04-07T09:17:27;2.88;;;0.30;;
50124;SDS011;36023;48.670;6.184;2023-04-07T09:19:57;1.58;;;0.20;;
50124;SDS011;36023;48.670;6.184;2023-04-07T09:22:33;0.40;;;0.20;;
50124;SDS011;36023;48.670;6.184;2023-04-07T09:27:35;1.30;;;0.30;;
50124;SDS011;36023;48.670;6.184;2023-04-07T09:30:11;0.93;;;0.30;;
50124;SDS011;36023;48.670;6.184;2023-04-07T09:32:39;1.42;;;0.43;;
50124;SDS011;36023;48.670;6.184;2023-04-07T09:35:05;1.65;;;0.40;;
50124;SDS011;36023;48.670;6.184;2023-04-07T09:37:31;1.48;;;0.30;;
50124;SDS011;36023;48.670;6.184;2023-04-07T09:39:57;4.82;;;0.30;;
50124;SDS011;36023;48.670;6.184;2023-04-07T09:42:27;1.20;;;0.38;;
50124;SDS011;36023;48.670;6.184;2023-04-07T09:44:59;0.50;;;0.17;;
50124;SDS011;36023;48.670;6.184;2023-04-07T09:47:26;4.13;;;0.20;;
50124;SDS011;36023;48.670;6.184;2023-04-07T09:49:53;2.55;;;0.50;;
50124;SDS011;36023;48.670;6.184;2023-04-07T09:55:20;0.60;;;0.30;;
50124;SDS011;36023;48.670;6.184;2023-04-07T09:57:49;2.00;;;0.20;;
50124;SDS011;36023;48.670;6.184;2023-04-07T10:00:16;3.55;;;0.85;;
50124;SDS011;36023;48.670;6.184;2023-04-07T10:02:41;0.88;;;0.28;;
50124;SDS011;36023;48.670;6.184;2023-04-07T10:05:08;0.57;;;0.13;;
50124;SDS011;36023;48.670;6.184;2023-04-07T10:07:35;2.40;;;0.40;;
50124;SDS011;36023;48.670;6.184;2023-04-07T10:10:02;0.30;;;0.20;;
50124;SDS011;36023;48.670;6.184;2023-04-07T10:12:32;0.68;;;0.22;;
50124;SDS011;36023;48.670;6.184;2023-04-07T10:14:59;1.67;;;0.60;;
50124;SDS011;36023;48.670;6.184;2023-04-07T10:17:26;0.28;;;0.10;;
50124;SDS011;36023;48.670;6.184;2023-04-07T10:19:52;3.50;;;0.40;;
50124;SDS011;36023;48.670;6.184;2023-04-07T10:22:20;1.52;;;0.35;;
50124;SDS011;36023;48.670;6.184;2023-04-07T10:25:03;0.90;;;0.30;;
50124;SDS011;36023;48.670;6.184;2023-04-07T10:27:54;0.32;;;0.30;;
50124;SDS011;36023;48.670;6.184;2023-04-07T10:30:25;2.53;;;0.17;;
50124;SDS011;36023;48.670;6.184;2023-04-07T10:32:54;1.25;;;0.43;;
50124;SDS011;36023;48.670;6.184;2023-04-07T10:35:20;3.45;;;0.30;;
50124;SDS011;36023;48.670;6.184;2023-04-07T10:40:42;2.40;;;0.33;;
50124;SDS011;36023;48.670;6.184;2023-04-07T10:43:08;1.60;;;0.70;;
50124;SDS011;36023;48.670;6.184;2023-04-07T10:45:50;0.70;;;0.45;;
50124;SDS011;36023;48.670;6.184;2023-04-07T10:48:17;2.05;;;1.33;;
50124;SDS011;36023;48.670;6.184;2023-04-07T10:50:44;1.95;;;0.70;;
50124;SDS011;36023;48.670;6.184;2023-04-07T10:53:13;2.22;;;1.42;;
50124;SDS011;36023;48.670;6.184;2023-04-07T10:55:43;1.13;;;1.02;;
50124;SDS011;36023;48.670;6.184;2023-04-07T11:03:26;2.33;;;1.88;;
50124;SDS011;36023;48.670;6.184;2023-04-07T11:08:43;3.40;;;2.08;;
50124;SDS011;36023;48.670;6.184;2023-04-07T11:11:21;5.25;;;1.90;;
50124;SDS011;36023;48.670;6.184;2023-04-07T11:14:02;2.00;;;1.88;;
50124;SDS011;36023;48.670;6.184;2023-04-07T11:16:35;6.95;;;1.67;;
50124;SDS011;36023;48.670;6.184;2023-04-07T11:19:02;1.60;;;1.50;;
50124;SDS011;36023;48.670;6.184;2023-04-07T11:21:28;2.03;;;1.50;;
50124;SDS011;36023;48.670;6.184;2023-04-07T11:23:54;1.90;;;1.25;;
50124;SDS011;36023;48.670;6.184;2023-04-07T11:26:20;1.52;;;1.42;;
50124;SDS011;36023;48.670;6.184;2023-04-07T11:28:50;1.55;;;1.45;;
50124;SDS011;36023;48.670;6.184;2023-04-07T11:31:21;0.63;;;0.60;;
50124;SDS011;36023;48.670;6.184;2023-04-07T11:33:52;1.55;;;0.63;;
50124;SDS011;36023;48.670;6.184;2023-04-07T11:36:32;0.95;;;0.80;;
50124;SDS011;36023;48.670;6.184;2023-04-07T11:39:00;0.90;;;0.70;;
50124;SDS011;36023;48.670;6.184;2023-04-07T11:41:27;1.50;;;0.70;;
50124;SDS011;36023;48.670;6.184;2023-04-07T11:44:09;1.25;;;0.65;;
50124;SDS011;36023;48.670;6.184;2023-04-07T11:46:36;2.78;;;0.70;;
50124;SDS011;36023;48.670;6.184;2023-04-07T11:49:18;3.17;;;0.75;;
50124;SDS011;36023;48.670;6.184;2023-04-07T11:51:45;0.88;;;0.40;;
50124;SDS011;36023;48.670;6.184;2023-04-07T11:54:11;1.05;;;0.60;;
50124;SDS011;36023;48.670;6.184;2023-04-07T11:56:44;1.33;;;0.57;;
50124;SDS011;36023;48.670;6.184;2023-04-07T11:59:21;0.75;;;0.63;;
50124;SDS011;36023;48.670;6.184;2023-04-07T12:01:49;2.35;;;0.40;;
50124;SDS011;36023;48.670;6.184;2023-04-07T12:04:15;0.98;;;0.40;;
50124;SDS011;36023;48.670;6.184;2023-04-07T12:06:43;0.90;;;0.40;;
50124;SDS011;36023;48.670;6.184;2023-04-07T12:09:26;0.47;;;0.30;;
50124;SDS011;36023;48.670;6.184;2023-04-07T12:11:53;1.75;;;0.77;;
50124;SDS011;36023;48.670;6.184;2023-04-07T12:14:19;1.00;;;0.40;;
50124;SDS011;36023;48.670;6.184;2023-04-07T12:16:45;1.15;;;0.43;;
50124;SDS011;36023;48.670;6.184;2023-04-07T12:19:11;1.02;;;0.47;;
50124;SDS011;36023;48.670;6.184;2023-04-07T12:21:37;0.60;;;0.38;;
50124;SDS011;36023;48.670;6.184;2023-04-07T12:24:02;1.40;;;0.70;;
50124;SDS011;36023;48.670;6.184;2023-04-07T12:26:28;0.25;;;0.25;;
50124;SDS011;36023;48.670;6.184;2023-04-07T12:28:54;1.27;;;0.40;;
50124;SDS011;36023;48.670;6.184;2023-04-07T12:31:20;0.75;;;0.50;;
50124;SDS011;36023;48.670;6.184;2023-04-07T12:33:46;2.35;;;0.85;;
50124;SDS011;36023;48.670;6.184;2023-04-07T12:36:11;0.43;;;0.30;;
50124;SDS011;36023;48.670;6.184;2023-04-07T12:38:37;0.52;;;0.50;;
50124;SDS011;36023;48.670;6.184;2023-04-07T12:41:03;1.75;;;0.43;;
50124;SDS011;36023;48.670;6.184;2023-04-07T12:43:29;2.35;;;0.50;;
50124;SDS011;36023;48.670;6.184;2023-04-07T12:45:55;1.67;;;0.50;;
50124;SDS011;36023;48.670;6.184;2023-04-07T12:48:21;1.80;;;0.30;;
50124;SDS011;36023;48.670;6.184;2023-04-07T12:50:48;3.00;;;0.80;;
50124;SDS011;36023;48.670;6.184;2023-04-07T12:53:14;0.63;;;0.35;;
50124;SDS011;36023;48.670;6.184;2023-04-07T12:55:46;0.40;;;0.17;;
50124;SDS011;36023;48.670;6.184;2023-04-07T12:58:12;0.60;;;0.50;;
50124;SDS011;36023;48.670;6.184;2023-04-07T13:00:39;0.70;;;0.35;;
50124;SDS011;36023;48.670;6.184;2023-04-07T13:03:05;0.30;;;0.30;;
50124;SDS011;36023;48.670;6.184;2023-04-07T13:05:31;0.57;;;0.28;;
50124;SDS011;36023;48.670;6.184;2023-04-07T13:07:58;3.03;;;0.43;;
50124;SDS011;36023;48.670;6.184;2023-04-07T13:10:26;0.75;;;0.50;;
50124;SDS011;36023;48.670;6.184;2023-04-07T13:12:52;0.65;;;0.38;;
50124;SDS011;36023;48.670;6.184;2023-04-07T13:15:17;0.32;;;0.32;;
50124;SDS011;36023;48.670;6.184;2023-04-07T13:17:43;1.02;;;0.93;;
50124;SDS011;36023;48.670;6.184;2023-04-07T13:20:09;4.85;;;0.40;;
50124;SDS011;36023;48.670;6.184;2023-04-07T13:22:34;1.13;;;0.38;;
50124;SDS011;36023;48.670;6.184;2023-04-07T13:25:00;3.13;;;0.50;;
50124;SDS011;36023;48.670;6.184;2023-04-07T13:27:26;0.32;;;0.28;;
50124;SDS011;36023;48.670;6.184;2023-04-07T13:29:52;0.20;;;0.20;;
50124;SDS011;36023;48.670;6.184;2023-04-07T13:32:17;2.97;;;0.70;;
50124;SDS011;36023;48.670;6.184;2023-04-07T13:34:43;1.83;;;0.30;;
50124;SDS011;36023;48.670;6.184;2023-04-07T13:37:09;1.83;;;0.63;;
50124;SDS011;36023;48.670;6.184;2023-04-07T13:39:34;0.80;;;0.60;;
50124;SDS011;36023;48.670;6.184;2023-04-07T13:42:00;1.67;;;0.55;;
50124;SDS011;36023;48.670;6.184;2023-04-07T13:44:28;1.85;;;0.20;;
50124;SDS011;36023;48.670;6.184;2023-04-07T13:46:54;0.65;;;0.40;;
50124;SDS011;36023;48.670;6.184;2023-04-07T13:49:21;0.40;;;0.20;;
50124;SDS011;36023;48.670;6.184;2023-04-07T13:51:47;0.32;;;0.17;;
50124;SDS011;36023;48.670;6.184;2023-04-07T13:54:13;1.85;;;0.57;;
50124;SDS011;36023;48.670;6.184;2023-04-07T13:56:39;1.88;;;0.57;;
50124;SDS011;36023;48.670;6.184;2023-04-07T13:59:05;3.13;;;0.50;;
50124;SDS011;36023;48.670;6.184;2023-04-07T14:01:33;0.50;;;0.30;;
50124;SDS011;36023;48.670;6.184;2023-04-07T14:04:00;3.30;;;0.50;;
50124;SDS011;36023;48.670;6.184;2023-04-07T14:06:27;0.70;;;0.40;;
50124;SDS011;36023;48.670;6.184;2023-04-07T14:08:53;1.60;;;0.30;;
50124;SDS011;36023;48.670;6.184;2023-04-07T14:11:22;1.00;;;0.50;;
50124;SDS011;36023;48.670;6.184;2023-04-07T14:13:49;0.50;;;0.32;;
50124;SDS011;36023;48.670;6.184;2023-04-07T14:16:16;0.38;;;0.38;;
50124;SDS011;36023;48.670;6.184;2023-04-07T14:18:42;1.85;;;0.50;;
50124;SDS011;36023;48.670;6.184;2023-04-07T14:21:08;0.90;;;0.43;;
50124;SDS011;36023;48.670;6.184;2023-04-07T14:23:35;0.40;;;0.20;;
50124;SDS011;36023;48.670;6.184;2023-04-07T14:26:01;0.32;;;0.22;;
50124;SDS011;36023;48.670;6.184;2023-04-07T14:28:27;0.80;;;0.40;;
50124;SDS011;36023;48.670;6.184;2023-04-07T14:30:53;0.30;;;0.20;;
50124;SDS011;36023;48.670;6.184;2023-04-07T14:33:19;1.05;;;0.43;;
50124;SDS011;36023;48.670;6.184;2023-04-07T14:35:46;0.75;;;0.32;;
50124;SDS011;36023;48.670;6.184;2023-04-07T14:38:12;0.52;;;0.30;;
50124;SDS011;36023;48.670;6.184;2023-04-07T14:40:39;1.25;;;0.32;;
50124;SDS011;36023;48.670;6.184;2023-04-07T14:43:05;1.10;;;0.47;;
50124;SDS011;36023;48.670;6.184;2023-04-07T14:45:33;1.35;;;0.35;;
50124;SDS011;36023;48.670;6.184;2023-04-07T14:48:00;0.50;;;0.40;;
50124;SDS011;36023;48.670;6.184;2023-04-07T14:50:27;1.50;;;0.30;;
50124;SDS011;36023;48.670;6.184;2023-04-07T14:52:53;0.40;;;0.28;;
50124;SDS011;36023;48.670;6.184;2023-04-07T14:55:19;0.57;;;0.38;;
50124;SDS011;36023;48.670;6.184;2023-04-07T14:57:46;1.10;;;0.30;;
50124;SDS011;36023;48.670;6.184;2023-04-07T15:00:12;0.40;;;0.20;;
50124;SDS011;36023;48.670;6.184;2023-04-07T15:02:38;1.10;;;0.45;;
50124;SDS011;36023;48.670;6.184;2023-04-07T15:05:04;0.40;;;0.20;;
50124;SDS011;36023;48.670;6.184;2023-04-07T15:07:30;1.20;;;0.50;;
50124;SDS011;36023;48.670;6.184;2023-04-07T15:09:58;0.30;;;0.20;;
50124;SDS011;36023;48.670;6.184;2023-04-07T15:12:24;0.85;;;0.40;;
50124;SDS011;36023;48.670;6.184;2023-04-07T15:14:53;0.55;;;0.30;;
50124;SDS011;36023;48.670;6.184;2023-04-07T15:17:19;0.98;;;0.30;;
50124;SDS011;36023;48.670;6.184;2023-04-07T15:19:46;0.60;;;0.40;;
50124;SDS011;36023;48.670;6.184;2023-04-07T15:22:11;1.17;;;0.50;;
50124;SDS011;36023;48.670;6.184;2023-04-07T15:24:37;0.57;;;0.30;;